createdAt,value
2017-09-13T00:01:01.837Z,8.13
2017-09-13T00:03:04.474Z,5.70
2017-09-13T00:05:07.370Z,9.80
2017-09-13T00:07:10.038Z,5.77
2017-09-13T00:09:12.765Z,6.47
2017-09-13T00:11:16.389Z,5.70
2017-09-13T00:13:19.069Z,6.70
2017-09-13T00:15:21.731Z,7.67
2017-09-13T00:17:24.378Z,11.27
2017-09-13T00:19:27.167Z,10.53
2017-09-13T00:21:30.613Z,6.10
2017-09-13T00:23:33.319Z,8.00
2017-09-13T00:25:36.002Z,11.73
2017-09-13T00:27:38.633Z,4.57
2017-09-13T00:29:41.356Z,7.03
2017-09-13T00:31:44.789Z,7.40
2017-09-13T00:33:47.449Z,10.20
2017-09-13T00:35:51.000Z,10.50
2017-09-13T00:37:53.677Z,6.10
2017-09-13T00:39:56.357Z,5.53
2017-09-13T00:41:59.014Z,9.60
2017-09-13T00:44:01.961Z,4.50
2017-09-13T00:46:04.744Z,17.00
2017-09-13T00:48:07.455Z,9.40
2017-09-13T00:50:10.289Z,12.03
2017-09-13T00:52:13.760Z,10.17
2017-09-13T00:54:16.490Z,10.47
2017-09-13T00:56:19.211Z,8.80
2017-09-13T00:58:21.866Z,11.27
2017-09-13T01:00:24.572Z,4.43
2017-09-13T01:02:28.110Z,8.90
2017-09-13T01:04:30.894Z,8.07
2017-09-13T01:06:33.596Z,6.20
2017-09-13T01:08:36.304Z,9.93
2017-09-13T01:10:38.963Z,8.37
2017-09-13T01:12:41.635Z,12.30
2017-09-13T01:14:44.305Z,8.50
2017-09-13T01:16:47.000Z,11.23
2017-09-13T01:18:49.802Z,10.10
2017-09-13T01:20:53.233Z,6.93
2017-09-13T01:22:56.104Z,7.57
2017-09-13T01:24:58.767Z,8.37
2017-09-13T01:27:01.500Z,11.47
2017-09-13T01:29:04.356Z,12.37
2017-09-13T01:31:07.036Z,6.30
2017-09-13T01:33:09.722Z,8.37
2017-09-13T01:35:12.449Z,7.73
2017-09-13T01:37:15.241Z,5.93
2017-09-13T01:39:18.072Z,5.93
2017-09-13T01:41:20.735Z,10.40
2017-09-13T01:43:23.500Z,9.03
2017-09-13T01:45:26.175Z,7.27
2017-09-13T01:47:28.840Z,13.00
2017-09-13T01:49:31.773Z,9.43
2017-09-13T01:51:34.451Z,13.37
2017-09-13T01:53:37.874Z,11.03
2017-09-13T01:55:40.522Z,6.63
2017-09-13T01:57:44.051Z,11.30
2017-09-13T01:59:46.777Z,18.57
2017-09-13T02:01:49.439Z,15.90
2017-09-13T02:03:52.129Z,11.80
2017-09-13T02:05:54.791Z,11.87
2017-09-13T02:07:57.580Z,12.17
2017-09-13T02:10:00.260Z,8.13
2017-09-13T02:12:02.936Z,10.33
2017-09-13T02:14:05.593Z,9.80
2017-09-13T02:16:08.501Z,6.10
2017-09-13T02:18:11.187Z,8.53
2017-09-13T02:20:14.643Z,15.67
2017-09-13T02:22:17.352Z,19.47
2017-09-13T02:24:20.003Z,10.77
2017-09-13T02:26:22.746Z,10.80
2017-09-13T02:28:26.566Z,14.60
2017-09-13T02:30:29.398Z,7.40
2017-09-13T02:32:32.802Z,17.97
2017-09-13T02:34:36.243Z,15.20
2017-09-13T02:36:38.879Z,10.30
2017-09-13T02:38:41.526Z,8.87
2017-09-13T02:40:45.138Z,7.30
2017-09-13T02:42:48.571Z,18.50
2017-09-13T02:44:51.442Z,7.03
2017-09-13T02:46:54.138Z,19.77
2017-09-13T02:48:56.800Z,14.40
2017-09-13T02:50:59.615Z,5.77
2017-09-13T02:53:02.352Z,8.53
2017-09-13T02:55:05.014Z,7.23
2017-09-13T02:57:08.012Z,8.17
2017-09-13T02:59:10.715Z,13.90
2017-09-13T03:01:13.511Z,11.53
2017-09-13T03:03:16.248Z,16.17
2017-09-13T03:05:18.938Z,14.63
2017-09-13T03:07:21.801Z,10.20
2017-09-13T03:09:24.454Z,12.67
2017-09-13T03:11:28.071Z,8.27
2017-09-13T03:13:30.822Z,9.50
2017-09-13T03:15:34.239Z,5.53
2017-09-13T03:17:36.945Z,13.40
2017-09-13T03:19:40.710Z,15.40
2017-09-13T03:21:43.539Z,13.90
2017-09-13T03:23:46.314Z,10.90
2017-09-13T03:25:48.960Z,7.00
2017-09-13T03:27:51.755Z,9.17
2017-09-13T03:29:54.937Z,9.83
2017-09-13T03:31:57.731Z,15.33
2017-09-13T03:34:00.625Z,11.60
2017-09-13T03:36:03.319Z,11.70
2017-09-13T03:38:06.242Z,7.60
2017-09-13T03:40:08.903Z,4.40
2017-09-13T03:42:11.599Z,6.30
2017-09-13T03:44:14.333Z,8.17
2017-09-13T03:46:16.981Z,4.47
2017-09-13T03:48:19.764Z,5.87
2017-09-13T03:50:23.231Z,2.73
2017-09-13T03:52:26.104Z,7.07
2017-09-13T03:54:28.852Z,5.83
2017-09-13T03:56:32.297Z,2.70
2017-09-13T03:58:35.058Z,6.73
2017-09-13T04:00:37.748Z,4.93
2017-09-13T04:02:40.485Z,3.37
2017-09-13T04:04:43.991Z,4.13
2017-09-13T04:06:46.684Z,4.60
2017-09-13T04:08:49.344Z,2.10
2017-09-13T04:10:52.032Z,3.53
2017-09-13T04:12:54.811Z,2.53
2017-09-13T04:14:57.509Z,1.47
2017-09-13T04:17:00.183Z,5.47
2017-09-13T04:19:02.868Z,3.40
2017-09-13T04:21:05.540Z,1.73
2017-09-13T04:23:08.377Z,1.70
2017-09-13T04:25:11.152Z,1.60
2017-09-13T04:27:14.680Z,1.93
2017-09-13T04:29:17.384Z,2.60
2017-09-13T04:31:20.258Z,3.70
2017-09-13T04:33:22.917Z,2.73
2017-09-13T04:35:25.720Z,1.80
2017-09-13T04:37:28.497Z,6.93
2017-09-13T04:39:31.239Z,1.73
2017-09-13T04:41:34.012Z,2.50
2017-09-13T04:43:36.671Z,1.97
2017-09-13T04:45:40.081Z,2.07
2017-09-13T04:47:42.839Z,1.33
2017-09-13T04:49:46.240Z,2.40
2017-09-13T04:51:48.921Z,1.10
2017-09-13T04:53:51.590Z,1.30
2017-09-13T04:55:54.353Z,1.27
2017-09-13T04:57:57.814Z,1.60
2017-09-13T05:00:00.484Z,3.33
2017-09-13T05:02:03.347Z,1.83
2017-09-13T05:04:06.325Z,1.20
2017-09-13T05:06:09.208Z,1.23
2017-09-13T05:08:11.908Z,2.80
2017-09-13T05:10:14.574Z,0.70
2017-09-13T05:12:17.286Z,1.00
2017-09-13T05:14:19.964Z,1.33
2017-09-13T05:16:22.665Z,0.77
2017-09-13T05:18:26.184Z,1.53
2017-09-13T05:20:28.841Z,1.37
2017-09-13T05:22:31.737Z,1.43
2017-09-13T05:24:34.399Z,0.80
2017-09-13T05:26:37.218Z,1.43
2017-09-13T05:28:40.075Z,3.43
2017-09-13T05:30:42.785Z,1.00
2017-09-13T05:32:45.439Z,1.03
2017-09-13T05:34:48.179Z,1.73
2017-09-13T05:36:51.706Z,1.30
2017-09-13T05:38:54.515Z,1.90
2017-09-13T05:40:57.175Z,1.43
2017-09-13T05:42:59.829Z,1.10
2017-09-13T05:45:02.525Z,3.23
2017-09-13T05:47:05.176Z,0.83
2017-09-13T05:49:07.998Z,1.13
2017-09-13T05:51:10.704Z,0.90
2017-09-13T05:53:14.106Z,1.50
2017-09-13T05:55:17.675Z,1.00
2017-09-13T05:57:20.344Z,1.30
2017-09-13T05:59:22.991Z,2.13
2017-09-13T06:01:25.643Z,2.73
2017-09-13T06:03:28.335Z,4.50
2017-09-13T06:05:31.065Z,2.20
2017-09-13T06:07:33.713Z,3.73
2017-09-13T06:09:36.393Z,1.30
2017-09-13T06:11:39.164Z,2.23
2017-09-13T06:13:41.815Z,3.70
2017-09-13T06:15:44.680Z,5.33
2017-09-13T06:17:48.094Z,3.70
2017-09-13T06:19:50.751Z,6.53
2017-09-13T06:21:53.465Z,3.40
2017-09-13T06:23:56.118Z,2.40
2017-09-13T06:25:58.818Z,2.73
2017-09-13T06:28:01.630Z,4.30
2017-09-13T06:30:04.291Z,3.67
2017-09-13T06:32:06.999Z,2.50
2017-09-13T06:34:10.628Z,4.07
2017-09-13T06:36:13.405Z,6.47
2017-09-13T06:38:16.199Z,6.10
2017-09-13T06:40:18.860Z,5.17
2017-09-13T06:42:21.576Z,13.83
2017-09-13T06:44:24.435Z,17.07
2017-09-13T06:46:27.400Z,6.00
2017-09-13T06:48:30.099Z,12.30
2017-09-13T06:50:32.778Z,13.30
2017-09-13T06:52:35.533Z,11.20
2017-09-13T06:54:38.294Z,11.63
2017-09-13T06:56:40.991Z,13.77
2017-09-13T06:58:43.874Z,9.93
2017-09-13T07:00:46.674Z,11.10
2017-09-13T07:02:49.448Z,17.27
2017-09-13T07:04:52.156Z,11.33
2017-09-13T07:06:54.863Z,12.00
2017-09-13T07:08:57.505Z,12.67
2017-09-13T07:11:00.156Z,16.93
2017-09-13T07:13:02.949Z,15.10
2017-09-13T07:15:05.794Z,16.73
2017-09-13T07:17:08.579Z,15.13
2017-09-13T07:19:11.267Z,22.43
2017-09-13T07:21:13.975Z,14.67
2017-09-13T07:23:18.143Z,20.27
2017-09-13T07:25:20.990Z,20.10
2017-09-13T07:27:24.439Z,20.10
2017-09-13T07:29:27.184Z,22.60
2017-09-13T07:31:29.905Z,32.93
2017-09-13T07:33:34.491Z,20.30
2017-09-13T07:35:37.446Z,20.20
2017-09-13T07:37:40.267Z,15.50
2017-09-13T07:39:42.953Z,17.67
2017-09-13T07:41:45.623Z,19.87
2017-09-13T07:43:48.384Z,16.33
2017-09-13T07:45:52.089Z,21.87
2017-09-13T07:47:54.763Z,22.73
2017-09-13T07:49:57.565Z,22.37
2017-09-13T07:52:00.213Z,25.30
2017-09-13T07:54:02.893Z,26.53
2017-09-13T07:56:05.782Z,24.73
2017-09-13T07:58:08.457Z,23.10
2017-09-13T08:00:11.130Z,21.63
2017-09-13T08:02:13.817Z,24.93
2017-09-13T08:04:16.672Z,16.80
2017-09-13T08:06:19.474Z,17.13
2017-09-13T08:08:23.047Z,22.97
2017-09-13T08:10:25.845Z,18.43
2017-09-13T08:12:28.544Z,20.67
2017-09-13T08:14:31.189Z,21.43
2017-09-13T08:16:34.120Z,19.57
2017-09-13T08:18:36.817Z,18.30
2017-09-13T08:20:41.775Z,24.83
2017-09-13T08:22:44.467Z,21.57
2017-09-13T08:24:47.452Z,20.43
2017-09-13T08:26:50.280Z,21.30
2017-09-13T08:28:53.837Z,28.60
2017-09-13T08:30:56.699Z,21.10
2017-09-13T08:32:59.386Z,26.60
2017-09-13T08:35:02.351Z,35.50
2017-09-13T08:37:05.111Z,20.60
2017-09-13T08:39:07.779Z,24.97
2017-09-13T08:41:10.577Z,28.77
2017-09-13T08:43:13.394Z,18.83
2017-09-13T08:45:16.069Z,26.30
2017-09-13T08:47:18.779Z,23.40
2017-09-13T08:49:22.306Z,30.13
2017-09-13T08:51:24.979Z,20.80
2017-09-13T08:53:27.759Z,24.43
2017-09-13T08:55:30.546Z,24.50
2017-09-13T08:57:33.234Z,30.20
2017-09-13T08:59:36.745Z,17.73
2017-09-13T09:01:39.490Z,20.23
2017-09-13T09:03:42.201Z,23.93
2017-09-13T09:05:44.910Z,20.80
2017-09-13T09:07:48.746Z,18.53
2017-09-13T09:09:51.411Z,16.63
2017-09-13T09:11:54.093Z,15.13
2017-09-13T09:13:56.875Z,17.83
2017-09-13T09:15:59.548Z,17.53
2017-09-13T09:18:02.534Z,23.73
2017-09-13T09:20:05.211Z,18.07
2017-09-13T09:22:07.991Z,25.23
2017-09-13T09:24:10.734Z,14.43
2017-09-13T09:26:14.137Z,18.43
2017-09-13T09:28:17.659Z,19.00
2017-09-13T09:30:20.330Z,17.10
2017-09-13T09:32:22.973Z,27.90
2017-09-13T09:34:26.508Z,19.30
2017-09-13T09:36:29.202Z,17.30
2017-09-13T09:38:31.965Z,16.43
2017-09-13T09:40:34.650Z,20.43
2017-09-13T09:42:37.338Z,21.77
2017-09-13T09:44:40.088Z,14.57
2017-09-13T09:46:42.745Z,17.07
2017-09-13T09:48:46.394Z,15.40
2017-09-13T09:50:49.086Z,12.10
2017-09-13T09:52:51.740Z,13.57
2017-09-13T09:54:54.461Z,10.30
2017-09-13T09:56:57.126Z,13.97
2017-09-13T09:58:59.951Z,16.33
2017-09-13T10:01:02.936Z,12.10
2017-09-13T10:03:05.593Z,14.50
2017-09-13T10:05:08.418Z,9.57
2017-09-13T10:07:11.103Z,13.07
2017-09-13T10:09:13.753Z,12.83
2017-09-13T10:11:16.932Z,11.47
2017-09-13T10:13:19.611Z,11.50
2017-09-13T10:15:22.320Z,14.57
2017-09-13T10:17:24.983Z,8.17
2017-09-13T10:19:27.670Z,15.37
2017-09-13T10:21:30.381Z,25.00
2017-09-13T10:23:33.806Z,13.03
2017-09-13T10:25:36.539Z,13.07
2017-09-13T10:27:39.435Z,12.60
2017-09-13T10:29:42.854Z,14.80
2017-09-13T10:31:45.944Z,13.60
2017-09-13T10:33:48.599Z,17.03
2017-09-13T10:35:52.115Z,11.63
2017-09-13T10:37:55.924Z,10.47
2017-09-13T10:39:58.798Z,10.97
2017-09-13T10:42:01.667Z,11.10
2017-09-13T10:44:04.327Z,16.20
2017-09-13T10:46:07.744Z,36.80
2017-09-13T10:48:10.459Z,13.30
2017-09-13T10:50:13.203Z,13.90
2017-09-13T10:52:16.107Z,18.10
2017-09-13T10:54:18.781Z,10.37
2017-09-13T10:56:21.417Z,12.73
2017-09-13T10:58:24.084Z,15.37
2017-09-13T11:00:27.536Z,14.33
2017-09-13T11:02:30.329Z,22.83
2017-09-13T11:04:32.992Z,25.10
2017-09-13T11:06:35.666Z,15.33
2017-09-13T11:08:38.312Z,14.43
2017-09-13T11:10:41.204Z,15.90
2017-09-13T11:12:44.286Z,19.00
2017-09-13T11:14:46.955Z,12.93
2017-09-13T11:16:49.604Z,12.00
2017-09-13T11:18:53.140Z,14.33
2017-09-13T11:20:56.008Z,15.30
2017-09-13T11:22:59.040Z,13.60
2017-09-13T11:25:01.700Z,8.80
2017-09-13T11:27:04.350Z,14.00
2017-09-13T11:29:07.301Z,12.03
2017-09-13T11:31:10.712Z,13.70
2017-09-13T11:33:13.604Z,6.43
2017-09-13T11:35:16.300Z,10.10
2017-09-13T11:37:18.964Z,14.10
2017-09-13T11:39:21.610Z,12.63
2017-09-13T11:41:24.430Z,10.93
2017-09-13T11:43:27.189Z,11.20
2017-09-13T11:45:29.947Z,10.93
2017-09-13T11:47:32.637Z,12.80
2017-09-13T11:49:35.388Z,7.97
2017-09-13T11:51:38.816Z,17.23
2017-09-13T11:53:41.691Z,14.67
2017-09-13T11:55:44.519Z,17.67
2017-09-13T11:57:47.190Z,14.37
2017-09-13T11:59:50.116Z,5.30
2017-09-13T12:01:52.769Z,12.57
2017-09-13T12:03:56.236Z,16.23
2017-09-13T12:05:58.977Z,9.93
2017-09-13T12:08:01.626Z,12.13
2017-09-13T12:10:05.146Z,9.13
2017-09-13T12:12:07.816Z,11.30
2017-09-13T12:14:10.484Z,15.63
2017-09-13T12:16:13.279Z,9.20
2017-09-13T12:18:15.961Z,28.80
2017-09-13T12:20:18.665Z,8.90
2017-09-13T12:22:21.312Z,12.60
2017-09-13T12:24:24.001Z,12.13
2017-09-13T12:26:26.744Z,9.73
2017-09-13T12:28:30.171Z,7.10
2017-09-13T12:30:32.893Z,7.10
2017-09-13T12:32:35.545Z,12.10
2017-09-13T12:34:38.190Z,13.50
2017-09-13T12:36:40.972Z,12.70
2017-09-13T12:38:43.705Z,9.20
2017-09-13T12:40:47.238Z,11.13
2017-09-13T12:42:50.150Z,10.40
2017-09-13T12:44:52.897Z,9.63
2017-09-13T12:46:55.880Z,10.17
2017-09-13T12:48:58.795Z,17.93
2017-09-13T12:51:01.455Z,13.23
2017-09-13T12:53:04.297Z,11.53
2017-09-13T12:55:07.725Z,7.47
2017-09-13T12:57:10.504Z,10.90
2017-09-13T12:59:13.237Z,14.67
2017-09-13T13:01:16.691Z,13.33
2017-09-13T13:03:19.634Z,10.33
2017-09-13T13:05:22.272Z,8.97
2017-09-13T13:07:24.959Z,10.80
2017-09-13T13:09:28.395Z,11.10
2017-09-13T13:11:31.043Z,12.23
2017-09-13T13:13:34.545Z,5.30
2017-09-13T13:15:37.207Z,15.30
2017-09-13T13:17:40.793Z,10.53
2017-09-13T13:19:43.521Z,9.50
2017-09-13T13:21:46.174Z,7.93
2017-09-13T13:23:48.879Z,8.67
2017-09-13T13:25:51.576Z,6.97
2017-09-13T13:27:54.389Z,7.90
2017-09-13T13:29:57.869Z,15.47
2017-09-13T13:32:00.522Z,7.90
2017-09-13T13:34:03.338Z,6.60
2017-09-13T13:36:07.676Z,13.37
2017-09-13T13:38:14.886Z,17.93
2017-09-13T13:40:18.445Z,11.83
2017-09-13T13:42:21.159Z,13.00
2017-09-13T13:44:23.918Z,8.23
2017-09-13T13:46:26.584Z,9.43
2017-09-13T13:48:29.273Z,15.07
2017-09-13T13:50:31.967Z,11.40
2017-09-13T13:52:35.616Z,14.93
2017-09-13T13:54:38.425Z,10.00
2017-09-13T13:56:41.104Z,9.30
2017-09-13T13:58:43.779Z,14.70
2017-09-13T14:00:46.525Z,10.30
2017-09-13T14:02:49.941Z,9.57
2017-09-13T14:04:52.778Z,8.00
2017-09-13T14:06:55.609Z,10.10
2017-09-13T14:08:58.291Z,8.77
2017-09-13T14:11:01.028Z,8.00
2017-09-13T14:13:04.466Z,9.50
2017-09-13T14:15:07.136Z,13.47
2017-09-13T14:17:09.936Z,9.77
2017-09-13T14:19:12.635Z,7.30
2017-09-13T14:21:18.879Z,6.80
2017-09-13T14:23:21.628Z,9.17
2017-09-13T14:25:25.093Z,14.97
2017-09-13T14:27:28.496Z,5.80
2017-09-13T14:29:31.159Z,7.60
2017-09-13T14:31:34.623Z,14.13
2017-09-13T14:33:37.283Z,8.33
2017-09-13T14:35:41.072Z,9.17
2017-09-13T14:37:43.801Z,13.63
2017-09-13T14:39:47.245Z,8.13
2017-09-13T14:41:49.889Z,6.20
2017-09-13T14:43:53.410Z,10.23
2017-09-13T14:45:56.063Z,4.97
2017-09-13T14:47:58.722Z,6.30
2017-09-13T14:50:02.177Z,6.67
2017-09-13T14:52:04.929Z,7.77
2017-09-13T14:54:07.829Z,5.53
2017-09-13T14:56:10.506Z,7.07
2017-09-13T14:58:13.183Z,5.50
2017-09-13T15:00:15.973Z,6.63
2017-09-13T15:02:18.676Z,11.53
2017-09-13T15:04:21.506Z,4.67
2017-09-13T15:06:24.273Z,7.33
2017-09-13T15:08:26.967Z,7.37
2017-09-13T15:10:29.617Z,7.13
2017-09-13T15:12:33.230Z,9.23
2017-09-13T15:14:35.938Z,3.80
2017-09-13T15:16:38.980Z,3.10
2017-09-13T15:18:41.647Z,6.73
2017-09-13T15:20:44.409Z,4.70
2017-09-13T15:22:47.827Z,5.33
2017-09-13T15:24:50.518Z,11.13
2017-09-13T15:26:53.229Z,7.27
2017-09-13T15:28:55.966Z,3.53
2017-09-13T15:30:58.679Z,5.20
2017-09-13T15:33:01.374Z,4.07
2017-09-13T15:35:04.069Z,3.60
2017-09-13T15:37:07.589Z,4.27
2017-09-13T15:39:10.265Z,4.60
2017-09-13T15:41:13.045Z,3.83
2017-09-13T15:43:15.890Z,13.70
2017-09-13T15:45:19.347Z,5.77
2017-09-13T15:47:22.037Z,5.77
2017-09-13T15:49:24.774Z,5.53
2017-09-13T15:51:27.556Z,8.10
2017-09-13T15:53:30.227Z,11.83
2017-09-13T15:55:32.965Z,4.97
2017-09-13T15:57:36.555Z,3.27
2017-09-13T15:59:40.819Z,5.03
2017-09-13T16:01:43.699Z,3.70
2017-09-13T16:03:47.375Z,6.83
2017-09-13T16:05:50.943Z,3.93
2017-09-13T16:07:53.606Z,2.73
2017-09-13T16:09:56.349Z,3.80
2017-09-13T16:11:59.083Z,4.40
2017-09-13T16:14:02.528Z,9.03
2017-09-13T16:16:05.218Z,7.10
2017-09-13T16:18:07.915Z,9.40
2017-09-13T16:20:10.568Z,8.77
2017-09-13T16:22:13.326Z,4.03
2017-09-13T16:24:16.025Z,7.50
2017-09-13T16:26:18.890Z,9.93
2017-09-13T16:28:21.604Z,7.80
2017-09-13T16:30:24.289Z,5.90
2017-09-13T16:32:27.099Z,3.07
2017-09-13T16:34:29.782Z,8.03
2017-09-13T16:36:32.495Z,3.80
2017-09-13T16:38:35.347Z,7.40
2017-09-13T16:40:38.004Z,5.30
2017-09-13T16:42:41.606Z,7.37
2017-09-13T16:44:45.050Z,4.87
2017-09-13T16:46:48.030Z,16.90
2017-09-13T16:48:50.910Z,4.40
2017-09-13T16:50:53.579Z,9.03
2017-09-13T16:52:56.339Z,11.20
2017-09-13T16:54:59.011Z,8.10
2017-09-13T16:57:01.801Z,4.83
2017-09-13T16:59:04.518Z,13.10
2017-09-13T17:01:07.197Z,6.17
2017-09-13T17:03:10.722Z,7.53
2017-09-13T17:05:13.417Z,7.77
2017-09-13T17:07:16.198Z,9.77
2017-09-13T17:09:19.386Z,13.77
2017-09-13T17:11:22.045Z,9.30
2017-09-13T17:13:24.796Z,9.20
2017-09-13T17:15:27.446Z,6.50
2017-09-13T17:17:30.109Z,6.77
2017-09-13T17:19:32.899Z,18.97
2017-09-13T17:21:35.587Z,6.83
2017-09-13T17:23:38.251Z,10.47
2017-09-13T17:25:40.980Z,9.87
2017-09-13T17:27:43.766Z,8.40
2017-09-13T17:29:46.597Z,7.30
2017-09-13T17:31:49.278Z,4.37
2017-09-13T17:33:51.968Z,10.03
2017-09-13T17:35:55.712Z,9.93
2017-09-13T17:37:58.466Z,6.07
2017-09-13T17:40:02.087Z,9.47
2017-09-13T17:42:04.791Z,9.40
2017-09-13T17:44:07.487Z,14.23
2017-09-13T17:46:10.168Z,9.80
2017-09-13T17:48:12.884Z,13.47
2017-09-13T17:50:15.671Z,31.60
2017-09-13T17:52:18.372Z,9.73
2017-09-13T17:54:21.035Z,9.37
2017-09-13T17:56:23.846Z,9.93
2017-09-13T17:58:26.578Z,6.23
2017-09-13T18:00:29.291Z,16.47
2017-09-13T18:02:32.140Z,10.90
2017-09-13T18:04:34.916Z,14.60
2017-09-13T18:06:37.695Z,8.97
2017-09-13T18:08:40.419Z,14.53
2017-09-13T18:10:43.074Z,7.47
2017-09-13T18:12:45.834Z,7.07
2017-09-13T18:14:49.548Z,9.30
2017-09-13T18:16:52.197Z,15.60
2017-09-13T18:18:54.829Z,10.73
2017-09-13T18:20:58.622Z,8.90
2017-09-13T18:23:01.341Z,11.27
2017-09-13T18:25:03.997Z,15.93
2017-09-13T18:27:07.525Z,14.33
2017-09-13T18:29:10.166Z,12.17
2017-09-13T18:31:13.825Z,16.27
2017-09-13T18:33:16.621Z,11.40
2017-09-13T18:35:19.278Z,18.40
2017-09-13T18:37:21.941Z,17.80
2017-09-13T18:39:24.631Z,16.80
2017-09-13T18:41:27.420Z,13.23
2017-09-13T18:45:40.216Z,19.27
2017-09-13T18:47:43.046Z,17.10
2017-09-13T18:49:45.899Z,17.83
2017-09-13T18:51:48.588Z,13.70
2017-09-13T18:53:51.539Z,10.93
2017-09-13T18:55:54.205Z,19.07
2017-09-13T18:57:56.904Z,14.43
2017-09-13T18:59:59.693Z,23.03
2017-09-13T19:02:02.339Z,11.67
2017-09-13T19:04:05.123Z,10.50
2017-09-13T19:06:07.795Z,11.53
2017-09-13T19:08:10.468Z,14.27
2017-09-13T19:10:13.194Z,14.53
2017-09-13T19:12:16.085Z,15.90
2017-09-13T19:14:18.734Z,12.90
2017-09-13T19:16:21.451Z,8.27
2017-09-13T19:18:24.983Z,14.33
2017-09-13T19:20:27.740Z,14.13
2017-09-13T19:22:30.640Z,13.10
2017-09-13T19:24:33.306Z,8.00
2017-09-13T19:26:36.091Z,15.17
2017-09-13T19:28:38.792Z,15.00
2017-09-13T19:30:41.549Z,12.23
2017-09-13T19:32:44.369Z,10.63
2017-09-13T19:34:47.055Z,13.90
2017-09-13T19:36:49.887Z,17.03
2017-09-13T19:38:52.565Z,15.40
2017-09-13T19:40:55.515Z,20.27
2017-09-13T19:42:59.144Z,14.03
2017-09-13T19:45:01.819Z,10.73
2017-09-13T19:47:04.756Z,14.93
2017-09-13T19:49:07.421Z,10.93
2017-09-13T19:51:10.361Z,22.00
2017-09-13T19:53:13.217Z,12.00
2017-09-13T19:55:16.652Z,12.50
2017-09-13T19:57:19.523Z,14.43
2017-09-13T19:59:22.193Z,12.03
2017-09-13T20:01:24.864Z,17.53
2017-09-13T20:03:27.666Z,15.97
2017-09-13T20:05:30.427Z,13.70
2017-09-13T20:07:33.202Z,13.00
2017-09-13T20:09:35.844Z,11.83
2017-09-13T20:11:39.373Z,21.70
2017-09-13T20:13:42.855Z,12.20
2017-09-13T20:15:45.645Z,14.53
2017-09-13T20:17:48.360Z,17.77
2017-09-13T20:19:51.016Z,14.07
2017-09-13T20:21:53.684Z,17.53
2017-09-13T20:23:56.412Z,27.40
2017-09-13T20:25:59.068Z,14.20
2017-09-13T20:28:01.808Z,22.03
2017-09-13T20:30:04.513Z,15.67
2017-09-13T20:32:07.171Z,19.23
2017-09-13T20:34:10.168Z,20.73
2017-09-13T20:36:13.013Z,17.77
2017-09-13T20:38:15.671Z,15.67
2017-09-13T20:40:19.356Z,10.87
2017-09-13T20:42:22.044Z,34.83
2017-09-13T20:44:25.479Z,16.77
2017-09-13T20:46:28.281Z,16.17
2017-09-13T20:48:30.977Z,13.53
2017-09-13T20:50:33.658Z,17.50
2017-09-13T20:52:37.074Z,20.17
2017-09-13T20:54:40.588Z,21.53
2017-09-13T20:56:43.276Z,17.67
2017-09-13T20:58:45.976Z,14.20
2017-09-13T21:00:48.767Z,20.53
2017-09-13T21:02:51.424Z,19.10
2017-09-13T21:04:54.218Z,19.23
2017-09-13T21:06:57.631Z,25.07
2017-09-13T21:09:00.309Z,19.07
2017-09-13T21:11:03.720Z,26.33
2017-09-13T21:13:06.392Z,24.80
2017-09-13T21:15:10.115Z,23.33
2017-09-13T21:17:12.787Z,20.40
2017-09-13T21:19:15.437Z,29.10
2017-09-13T21:21:18.882Z,26.53
2017-09-13T21:23:21.552Z,36.40
2017-09-13T21:25:24.258Z,26.67
2017-09-13T21:27:27.076Z,30.23
2017-09-13T21:29:29.742Z,28.50
2017-09-13T21:31:33.183Z,30.60
2017-09-13T21:33:35.899Z,21.40
2017-09-13T21:35:39.477Z,33.77
2017-09-13T21:37:42.269Z,28.23
2017-09-13T21:39:44.994Z,26.17
2017-09-13T21:41:47.762Z,33.17
2017-09-13T21:43:50.451Z,37.33
2017-09-13T21:45:53.280Z,20.83
2017-09-13T21:47:56.041Z,24.63
2017-09-13T21:49:58.713Z,22.13
2017-09-13T21:52:01.517Z,25.00
2017-09-13T21:54:04.164Z,20.73
2017-09-13T21:56:07.017Z,20.60
2017-09-13T21:58:09.973Z,16.73
2017-09-13T22:00:13.497Z,16.70
2017-09-13T22:02:17.089Z,16.63
2017-09-13T22:04:19.828Z,16.50
2017-09-13T22:06:22.546Z,15.00
2017-09-13T22:08:25.256Z,12.30
2017-09-13T22:10:27.931Z,20.17
2017-09-13T22:12:30.748Z,20.33
2017-09-13T22:14:34.175Z,17.67
2017-09-13T22:16:36.955Z,11.83
2017-09-13T22:18:39.857Z,19.80
2017-09-13T22:20:42.512Z,15.07
2017-09-13T22:22:45.563Z,10.87
2017-09-13T22:24:48.981Z,14.63
2017-09-13T22:26:51.868Z,25.33
2017-09-13T22:33:11.408Z,12.43
2017-09-13T22:37:22.352Z,13.77
2017-09-13T22:39:25.740Z,11.63
2017-09-13T22:41:28.417Z,15.40
2017-09-13T22:43:31.075Z,13.67
2017-09-13T22:45:34.492Z,18.13
2017-09-13T22:47:37.575Z,15.97
2017-09-13T22:49:40.235Z,15.73
2017-09-13T22:51:42.919Z,16.17
2017-09-13T22:53:46.339Z,14.97
2017-09-13T22:55:48.984Z,11.20
2017-09-13T22:57:51.955Z,13.13
2017-09-13T22:59:55.386Z,14.10
2017-09-13T23:02:09.313Z,13.53
2017-09-13T23:04:11.957Z,27.33
2017-09-13T23:06:14.617Z,15.60
2017-09-13T23:14:42.819Z,13.97
2017-09-13T23:16:45.458Z,12.10
2017-09-13T23:18:48.096Z,11.67
2017-09-13T23:20:51.603Z,21.70
2017-09-13T23:22:55.027Z,21.53
2017-09-13T23:24:57.827Z,20.40
2017-09-13T23:27:00.488Z,14.23
2017-09-13T23:29:03.251Z,15.93
2017-09-13T23:31:06.935Z,16.60
2017-09-13T23:33:11.607Z,18.83
2017-09-13T23:35:14.386Z,15.37
2017-09-13T23:37:17.088Z,15.23
2017-09-13T23:39:19.791Z,17.50
2017-09-13T23:41:22.501Z,12.90
2017-09-13T23:43:25.182Z,28.70
2017-09-13T23:45:27.867Z,15.23
2017-09-13T23:47:30.530Z,12.80
2017-09-13T23:49:33.285Z,12.43
2017-09-13T23:51:35.951Z,16.20
2017-09-13T23:53:38.641Z,12.77
2017-09-13T23:55:41.460Z,19.57
2017-09-13T23:57:44.109Z,22.10
2017-09-13T23:59:46.761Z,19.60
